createdAt,value
2023-01-19T00:01:27.493Z,16.73
2023-01-19T00:03:55.378Z,15.50
2023-01-19T00:06:23.230Z,15.43
2023-01-19T00:08:51.251Z,17.23
2023-01-19T00:11:19.363Z,16.77
2023-01-19T00:13:50.584Z,18.07
2023-01-19T00:16:23.087Z,16.90
2023-01-19T00:18:52.668Z,14.93
2023-01-19T00:21:21.638Z,15.67
2023-01-19T00:23:51.362Z,15.10
2023-01-19T00:26:22.089Z,15.63
2023-01-19T00:28:51.037Z,15.53
2023-01-19T00:31:21.809Z,17.67
2023-01-19T00:33:52.644Z,18.67
2023-01-19T00:36:20.677Z,17.20
2023-01-19T00:38:48.560Z,15.03
2023-01-19T00:41:16.615Z,16.60
2023-01-19T00:43:43.677Z,15.77
2023-01-19T00:46:11.822Z,16.03
2023-01-19T00:48:41.040Z,14.00
2023-01-19T00:51:10.506Z,14.83
2023-01-19T00:53:38.310Z,16.87
2023-01-19T00:56:06.964Z,16.73
2023-01-19T00:58:34.793Z,15.30
2023-01-19T01:01:04.860Z,15.13
2023-01-19T01:03:32.990Z,17.63
2023-01-19T01:06:03.665Z,17.30
2023-01-19T01:08:33.329Z,20.23
2023-01-19T01:11:01.221Z,15.07
2023-01-19T01:13:29.597Z,16.60
2023-01-19T01:15:58.356Z,16.50
2023-01-19T01:18:26.909Z,17.97
2023-01-19T01:20:56.294Z,15.50
2023-01-19T01:23:25.782Z,15.20
2023-01-19T01:25:53.976Z,16.00
2023-01-19T01:28:22.079Z,15.43
2023-01-19T01:30:53.994Z,16.27
2023-01-19T01:33:40.057Z,14.37
2023-01-19T01:36:10.386Z,14.50
2023-01-19T01:38:39.610Z,15.30
2023-01-19T01:41:07.865Z,14.60
2023-01-19T01:43:47.228Z,17.60
2023-01-19T01:46:17.204Z,17.13
2023-01-19T01:48:50.884Z,15.30
2023-01-19T01:51:25.393Z,15.07
2023-01-19T01:54:04.634Z,14.73
2023-01-19T01:56:36.375Z,15.00
2023-01-19T01:59:07.502Z,16.17
2023-01-19T02:01:53.277Z,17.67
2023-01-19T02:04:22.799Z,16.93
2023-01-19T02:07:08.272Z,18.30
2023-01-19T02:09:56.426Z,15.57
2023-01-19T02:12:42.138Z,17.20
2023-01-19T02:15:17.073Z,14.90
2023-01-19T02:17:45.131Z,16.53
2023-01-19T02:20:13.545Z,15.00
2023-01-19T02:22:47.588Z,15.70
2023-01-19T02:25:18.874Z,15.07
2023-01-19T02:27:47.407Z,16.17
2023-01-19T02:30:16.839Z,18.00
2023-01-19T02:32:44.900Z,14.90
2023-01-19T02:35:13.946Z,14.30
2023-01-19T02:37:43.303Z,15.00
2023-01-19T02:40:14.320Z,13.83
2023-01-19T02:42:45.990Z,13.40
2023-01-19T02:45:16.286Z,13.40
2023-01-19T02:47:46.484Z,16.00
2023-01-19T02:50:43.693Z,15.73
2023-01-19T02:53:43.873Z,13.93
2023-01-19T02:56:46.294Z,16.20
2023-01-19T02:59:24.371Z,13.57
2023-01-19T03:02:10.511Z,15.43
2023-01-19T03:04:54.868Z,15.07
2023-01-19T03:07:31.737Z,13.77
2023-01-19T03:10:05.069Z,14.57
2023-01-19T03:12:41.226Z,14.50
2023-01-19T03:15:18.382Z,15.27
2023-01-19T03:17:47.439Z,15.33
2023-01-19T03:20:18.890Z,14.80
2023-01-19T03:22:50.200Z,15.73
2023-01-19T03:25:20.542Z,15.53
2023-01-19T03:27:52.200Z,16.97
2023-01-19T03:30:25.312Z,14.67
2023-01-19T03:32:57.434Z,14.47
2023-01-19T03:35:30.160Z,15.37
2023-01-19T03:38:00.251Z,13.27
2023-01-19T03:40:31.194Z,14.70
2023-01-19T03:43:00.488Z,15.47
2023-01-19T03:45:32.664Z,16.63
2023-01-19T03:48:00.810Z,15.93
2023-01-19T03:50:31.265Z,12.80
2023-01-19T03:53:06.547Z,16.23
2023-01-19T03:55:34.903Z,14.23
2023-01-19T03:58:02.742Z,14.33
2023-01-19T04:00:32.235Z,13.73
2023-01-19T04:03:00.709Z,13.57
2023-01-19T04:05:29.469Z,13.80
2023-01-19T04:07:57.660Z,17.40
2023-01-19T04:10:26.265Z,13.20
2023-01-19T04:12:58.498Z,15.70
2023-01-19T04:15:26.751Z,15.00
2023-01-19T04:17:58.081Z,16.83
2023-01-19T04:20:27.107Z,16.37
2023-01-19T04:22:56.144Z,16.33
2023-01-19T04:25:24.080Z,15.67
2023-01-19T04:27:53.997Z,18.33
2023-01-19T04:30:22.658Z,15.33
2023-01-19T04:32:50.802Z,14.33
2023-01-19T04:35:21.426Z,17.93
2023-01-19T04:37:49.249Z,14.07
2023-01-19T04:40:17.537Z,15.93
2023-01-19T04:42:45.997Z,16.97
2023-01-19T04:45:14.890Z,18.33
2023-01-19T04:47:43.278Z,17.87
2023-01-19T04:50:12.195Z,15.57
2023-01-19T04:52:41.426Z,18.17
2023-01-19T04:55:10.484Z,18.30
2023-01-19T04:57:38.304Z,17.47
2023-01-19T05:00:07.586Z,16.80
2023-01-19T05:02:36.168Z,17.00
2023-01-19T05:05:04.606Z,16.87
2023-01-19T05:07:32.528Z,18.60
2023-01-19T05:10:01.895Z,16.73
2023-01-19T05:12:29.741Z,17.53
2023-01-19T05:14:57.527Z,17.80
2023-01-19T05:17:25.402Z,16.00
2023-01-19T05:19:53.228Z,17.33
2023-01-19T05:22:21.001Z,17.17
2023-01-19T05:24:48.837Z,16.97
2023-01-19T05:27:18.047Z,16.00
2023-01-19T05:29:45.861Z,15.73
2023-01-19T05:32:14.408Z,17.07
2023-01-19T05:34:42.186Z,18.60
2023-01-19T05:37:10.067Z,17.80
2023-01-19T05:39:38.149Z,17.87
2023-01-19T05:42:06.347Z,16.20
2023-01-19T05:44:35.812Z,20.13
2023-01-19T05:47:03.757Z,16.77
2023-01-19T05:49:31.612Z,16.63
2023-01-19T05:51:59.403Z,17.93
2023-01-19T05:54:27.259Z,18.73
2023-01-19T05:56:55.055Z,24.37
2023-01-19T05:59:24.194Z,18.37
2023-01-19T06:01:54.565Z,17.17
2023-01-19T06:04:22.701Z,17.43
2023-01-19T06:06:50.947Z,16.03
2023-01-19T06:09:18.996Z,18.03
2023-01-19T06:11:47.463Z,21.67
2023-01-19T06:14:15.498Z,16.47
2023-01-19T06:16:44.046Z,17.77
2023-01-19T06:19:13.805Z,17.00
2023-01-19T06:21:41.756Z,19.33
2023-01-19T06:24:12.174Z,17.97
2023-01-19T06:26:42.494Z,17.40
2023-01-19T06:29:10.853Z,17.07
2023-01-19T06:31:38.756Z,15.70
2023-01-19T06:34:06.884Z,16.43
2023-01-19T06:36:36.144Z,15.30
2023-01-19T06:39:05.919Z,15.87
2023-01-19T06:41:34.340Z,17.37
2023-01-19T06:44:02.573Z,15.13
2023-01-19T06:46:30.440Z,16.30
2023-01-19T06:48:58.416Z,15.37
2023-01-19T06:51:26.482Z,15.40
2023-01-19T06:53:55.641Z,15.37
2023-01-19T06:56:23.490Z,15.33
2023-01-19T06:58:51.969Z,14.80
2023-01-19T07:01:20.328Z,14.47
2023-01-19T07:03:48.259Z,14.40
2023-01-19T07:06:16.413Z,15.03
2023-01-19T07:08:44.245Z,15.47
2023-01-19T07:11:24.948Z,14.13
2023-01-19T07:13:59.123Z,15.37
2023-01-19T07:16:27.123Z,14.07
2023-01-19T07:18:54.989Z,14.53
2023-01-19T07:21:23.117Z,15.10
2023-01-19T07:23:51.915Z,14.77
2023-01-19T07:26:22.080Z,15.03
2023-01-19T07:28:50.318Z,14.13
2023-01-19T07:31:19.079Z,14.60
2023-01-19T07:33:47.637Z,14.83
2023-01-19T07:36:15.518Z,15.57
2023-01-19T07:38:43.373Z,16.83
2023-01-19T07:41:11.814Z,17.70
2023-01-19T07:43:41.242Z,16.20
2023-01-19T07:46:09.255Z,16.93
2023-01-19T07:48:37.113Z,17.90
2023-01-19T07:51:11.101Z,19.07
2023-01-19T07:53:41.842Z,18.03
2023-01-19T07:56:10.259Z,18.23
2023-01-19T07:58:38.130Z,18.33
2023-01-19T08:01:09.038Z,20.77
2023-01-19T08:03:37.099Z,18.80
2023-01-19T08:06:06.164Z,19.37
2023-01-19T08:08:34.904Z,20.37
2023-01-19T08:11:03.166Z,19.60
2023-01-19T08:13:30.962Z,18.93
2023-01-19T08:15:58.953Z,18.27
2023-01-19T08:18:28.188Z,18.83
2023-01-19T08:20:56.111Z,18.60
2023-01-19T08:23:23.986Z,18.93
2023-01-19T08:25:51.842Z,19.13
2023-01-19T08:28:20.144Z,18.83
2023-01-19T08:30:54.181Z,17.93
2023-01-19T08:33:25.332Z,18.70
2023-01-19T08:35:55.431Z,19.40
2023-01-19T08:38:23.216Z,18.67
2023-01-19T08:40:51.070Z,17.80
2023-01-19T08:43:19.386Z,18.07
2023-01-19T08:45:51.955Z,17.17
2023-01-19T08:48:22.508Z,17.53
2023-01-19T08:50:51.789Z,17.67
2023-01-19T08:53:23.727Z,17.03
2023-01-19T08:55:55.372Z,15.37
2023-01-19T08:58:23.401Z,16.83
2023-01-19T09:00:52.728Z,18.00
2023-01-19T09:03:23.015Z,16.93
2023-01-19T09:05:51.740Z,16.93
2023-01-19T09:08:21.194Z,17.40
2023-01-19T09:10:50.527Z,18.13
2023-01-19T09:13:19.397Z,16.83
2023-01-19T09:15:47.607Z,18.17
2023-01-19T09:18:17.710Z,17.43
2023-01-19T09:20:47.023Z,17.50
2023-01-19T09:23:16.837Z,19.67
2023-01-19T09:25:48.411Z,18.93
2023-01-19T09:28:18.026Z,18.10
2023-01-19T09:30:46.170Z,17.67
2023-01-19T09:33:16.520Z,20.20
2023-01-19T09:35:45.650Z,19.20
2023-01-19T09:38:16.311Z,19.17
2023-01-19T09:40:49.212Z,19.67
2023-01-19T09:43:26.189Z,19.63
2023-01-19T09:45:58.756Z,20.33
2023-01-19T09:48:43.743Z,21.90
2023-01-19T09:51:16.161Z,20.83
2023-01-19T09:53:56.644Z,21.47
2023-01-19T09:56:26.276Z,19.83
2023-01-19T09:58:54.378Z,18.73
2023-01-19T10:01:35.700Z,19.07
2023-01-19T10:04:20.040Z,17.97
2023-01-19T10:06:48.963Z,18.07
2023-01-19T10:09:25.980Z,20.17
2023-01-19T10:12:02.445Z,19.03
2023-01-19T10:14:36.417Z,17.97
2023-01-19T10:17:17.752Z,17.60
2023-01-19T10:19:49.552Z,22.97
2023-01-19T10:22:22.259Z,17.53
2023-01-19T10:24:54.858Z,18.20
2023-01-19T10:27:27.386Z,17.83
2023-01-19T10:29:56.593Z,17.87
2023-01-19T10:32:26.259Z,18.07
2023-01-19T10:34:58.290Z,16.87
2023-01-19T10:37:31.764Z,17.73
2023-01-19T10:40:03.754Z,17.27
2023-01-19T10:42:32.997Z,17.90
2023-01-19T10:45:00.887Z,17.60
2023-01-19T10:47:35.187Z,17.33
2023-01-19T10:50:19.625Z,17.13
2023-01-19T10:52:52.081Z,16.53
2023-01-19T10:55:29.995Z,15.07
2023-01-19T10:58:00.548Z,15.53
2023-01-19T11:00:34.451Z,16.50
2023-01-19T11:03:03.491Z,16.57
2023-01-19T11:05:33.130Z,14.63
2023-01-19T11:08:01.557Z,15.97
2023-01-19T11:10:30.387Z,15.30
2023-01-19T11:13:07.517Z,14.07
2023-01-19T11:15:42.154Z,17.83
2023-01-19T11:18:10.291Z,15.07
2023-01-19T11:20:50.915Z,16.67
2023-01-19T11:23:27.979Z,15.33
2023-01-19T11:25:58.881Z,14.53
2023-01-19T11:28:31.362Z,15.73
2023-01-19T11:31:01.413Z,14.20
2023-01-19T11:33:35.716Z,14.87
2023-01-19T11:36:06.356Z,14.67
2023-01-19T11:38:43.439Z,14.90
2023-01-19T11:41:19.945Z,15.17
2023-01-19T11:43:52.646Z,14.50
2023-01-19T11:46:21.939Z,15.47
2023-01-19T11:48:57.462Z,15.10
2023-01-19T11:51:29.774Z,15.80
2023-01-19T11:53:57.959Z,15.43
2023-01-19T11:56:29.965Z,15.20
2023-01-19T11:58:59.152Z,14.37
2023-01-19T12:01:31.196Z,16.13
2023-01-19T12:04:04.489Z,15.73
2023-01-19T12:06:36.545Z,13.47
2023-01-19T12:09:12.696Z,14.57
2023-01-19T12:11:45.197Z,13.80
2023-01-19T12:14:20.347Z,14.13
2023-01-19T12:16:49.246Z,14.20
2023-01-19T12:19:19.996Z,15.23
2023-01-19T12:21:49.005Z,13.90
2023-01-19T12:24:19.677Z,14.70
2023-01-19T12:26:54.978Z,17.67
2023-01-19T12:29:28.959Z,14.03
2023-01-19T12:32:19.143Z,15.30
2023-01-19T12:34:47.656Z,15.87
2023-01-19T12:37:42.136Z,15.80
2023-01-19T12:40:24.621Z,14.27
2023-01-19T12:42:59.448Z,16.83
2023-01-19T12:45:33.309Z,16.77
2023-01-19T12:48:02.431Z,15.33
2023-01-19T12:50:34.293Z,16.30
2023-01-19T12:53:03.812Z,15.43
2023-01-19T12:55:33.329Z,15.07
2023-01-19T12:58:05.232Z,15.03
2023-01-19T13:00:39.884Z,13.67
2023-01-19T13:03:45.628Z,14.00
2023-01-19T13:06:13.577Z,13.93
2023-01-19T13:08:59.417Z,13.60
2023-01-19T13:11:31.329Z,14.07
2023-01-19T13:14:36.640Z,16.10
2023-01-19T13:17:19.563Z,14.87
2023-01-19T13:20:08.224Z,13.33
2023-01-19T13:23:17.531Z,12.33
2023-01-19T13:25:50.405Z,12.93
2023-01-19T13:28:19.979Z,12.23
2023-01-19T13:30:56.927Z,13.60
2023-01-19T13:33:28.544Z,12.90
2023-01-19T13:35:58.996Z,13.50
2023-01-19T13:38:28.678Z,12.57
2023-01-19T13:40:58.242Z,12.40
2023-01-19T13:43:30.117Z,14.10
2023-01-19T13:45:58.169Z,13.97
2023-01-19T13:48:27.517Z,11.90
2023-01-19T13:51:02.447Z,11.87
2023-01-19T13:53:30.653Z,15.13
2023-01-19T13:56:20.896Z,13.13
2023-01-19T13:59:05.096Z,12.50
2023-01-19T14:01:33.341Z,12.03
2023-01-19T14:04:02.871Z,10.90
2023-01-19T14:06:39.773Z,13.07
2023-01-19T14:09:19.264Z,11.53
2023-01-19T14:11:49.734Z,13.87
2023-01-19T14:14:37.198Z,12.83
2023-01-19T14:17:05.341Z,15.80
2023-01-19T14:19:52.637Z,12.13
2023-01-19T14:22:20.799Z,11.17
2023-01-19T14:24:48.715Z,13.70
2023-01-19T14:27:25.586Z,14.67
2023-01-19T14:29:54.780Z,13.37
2023-01-19T14:32:24.350Z,12.87
2023-01-19T14:35:13.148Z,11.73
2023-01-19T14:37:48.867Z,10.17
2023-01-19T14:40:20.043Z,10.83
2023-01-19T14:42:52.792Z,10.43
2023-01-19T14:45:23.616Z,10.00
2023-01-19T14:47:57.507Z,11.23
2023-01-19T14:50:30.107Z,10.50
2023-01-19T14:53:00.619Z,14.63
2023-01-19T14:55:34.468Z,13.40
2023-01-19T14:58:02.350Z,9.70
2023-01-19T15:00:30.542Z,12.47
2023-01-19T15:02:58.689Z,9.73
2023-01-19T15:05:28.471Z,11.73
2023-01-19T15:07:56.655Z,11.60
2023-01-19T15:10:26.031Z,11.70
2023-01-19T15:12:55.528Z,11.23
2023-01-19T15:15:30.295Z,10.97
2023-01-19T15:17:58.764Z,9.17
2023-01-19T15:20:28.218Z,9.30
2023-01-19T15:22:56.206Z,11.50
2023-01-19T15:25:26.141Z,14.07
2023-01-19T15:27:54.309Z,12.77
2023-01-19T15:30:24.884Z,11.93
2023-01-19T15:32:52.844Z,10.73
2023-01-19T15:35:22.719Z,12.13
2023-01-19T15:37:52.191Z,10.93
2023-01-19T15:40:22.712Z,10.80
2023-01-19T15:42:50.858Z,10.10
2023-01-19T15:45:37.232Z,13.93
2023-01-19T15:48:07.068Z,13.97
2023-01-19T15:50:37.146Z,12.47
2023-01-19T15:53:06.595Z,12.87
2023-01-19T15:55:34.633Z,11.90
2023-01-19T15:58:02.672Z,13.20
2023-01-19T16:00:31.430Z,10.77
2023-01-19T16:02:59.838Z,11.00
2023-01-19T16:05:41.553Z,12.47
2023-01-19T16:08:12.411Z,11.70
2023-01-19T16:10:40.683Z,11.47
2023-01-19T16:13:08.856Z,11.33
2023-01-19T16:15:37.342Z,9.97
2023-01-19T16:18:06.201Z,13.07
2023-01-19T16:20:34.280Z,9.93
2023-01-19T16:23:14.595Z,8.93
2023-01-19T16:25:44.629Z,12.20
2023-01-19T16:28:12.510Z,9.03
2023-01-19T16:30:40.432Z,8.83
2023-01-19T16:33:11.761Z,10.80
2023-01-19T16:35:39.609Z,9.97
2023-01-19T16:38:09.453Z,7.53
2023-01-19T16:40:37.624Z,10.83
2023-01-19T16:43:07.000Z,8.10
2023-01-19T16:45:35.772Z,9.03
2023-01-19T16:48:03.778Z,10.23
2023-01-19T16:50:31.568Z,6.30
2023-01-19T16:52:59.510Z,12.40
2023-01-19T16:55:27.542Z,7.53
2023-01-19T16:57:56.555Z,9.63
2023-01-19T17:00:25.900Z,12.97
2023-01-19T17:02:55.212Z,9.03
2023-01-19T17:05:24.167Z,8.57
2023-01-19T17:07:52.007Z,10.33
2023-01-19T17:10:19.996Z,10.63
2023-01-19T17:12:47.841Z,10.87
2023-01-19T17:15:15.755Z,9.27
2023-01-19T17:17:45.068Z,10.23
2023-01-19T17:20:13.782Z,10.13
2023-01-19T17:22:41.980Z,13.87
2023-01-19T17:25:10.304Z,8.33
2023-01-19T17:27:38.169Z,10.20
2023-01-19T17:30:06.710Z,11.50
2023-01-19T17:32:34.637Z,12.70
2023-01-19T17:35:04.058Z,13.80
2023-01-19T17:37:32.017Z,13.30
2023-01-19T17:39:59.937Z,10.87
2023-01-19T17:42:27.876Z,8.03
2023-01-19T17:44:58.778Z,9.77
2023-01-19T17:47:26.660Z,9.40
2023-01-19T17:49:54.449Z,11.10
2023-01-19T17:52:23.709Z,7.53
2023-01-19T17:54:51.653Z,8.37
2023-01-19T17:57:19.467Z,7.00
2023-01-19T17:59:48.338Z,10.43
2023-01-19T18:02:16.581Z,12.97
2023-01-19T18:04:44.718Z,9.00
2023-01-19T18:07:12.508Z,9.00
2023-01-19T18:09:41.778Z,10.20
2023-01-19T18:12:09.719Z,11.00
2023-01-19T18:14:37.572Z,10.00
2023-01-19T18:17:05.746Z,8.63
2023-01-19T18:19:33.712Z,6.67
2023-01-19T18:22:01.578Z,8.57
2023-01-19T18:24:29.658Z,9.30
2023-01-19T18:26:58.980Z,8.83
2023-01-19T18:29:26.907Z,6.50
2023-01-19T18:31:54.966Z,7.37
2023-01-19T18:34:22.786Z,8.90
2023-01-19T18:36:50.666Z,9.00
2023-01-19T18:39:18.550Z,9.37
2023-01-19T18:41:46.468Z,6.43
2023-01-19T18:44:15.658Z,12.67
2023-01-19T18:46:43.613Z,26.17
2023-01-19T18:49:11.515Z,9.93
2023-01-19T18:51:40.457Z,7.87
2023-01-19T18:54:08.886Z,9.47
2023-01-19T18:56:36.733Z,6.20
2023-01-19T18:59:05.062Z,6.87
2023-01-19T19:01:35.257Z,11.73
2023-01-19T19:04:03.561Z,6.43
2023-01-19T19:06:31.525Z,8.13
2023-01-19T19:09:00.298Z,7.97
2023-01-19T19:11:31.389Z,10.23
2023-01-19T19:14:00.800Z,5.57
2023-01-19T19:16:29.762Z,6.47
2023-01-19T19:19:00.352Z,10.20
2023-01-19T19:21:28.846Z,7.87
2023-01-19T19:23:58.516Z,7.47
2023-01-19T19:26:28.310Z,7.07
2023-01-19T19:28:56.629Z,5.23
2023-01-19T19:31:26.160Z,7.90
2023-01-19T19:33:54.999Z,8.30
2023-01-19T19:36:25.068Z,10.33
2023-01-19T19:38:52.986Z,8.50
2023-01-19T19:41:23.697Z,7.57
2023-01-19T19:43:51.716Z,9.53
2023-01-19T19:46:21.246Z,6.77
2023-01-19T19:48:49.920Z,9.17
2023-01-19T19:51:22.520Z,8.73
2023-01-19T19:53:56.152Z,7.03
2023-01-19T19:56:25.690Z,7.63
2023-01-19T19:58:55.764Z,8.53
2023-01-19T20:01:27.724Z,9.17
2023-01-19T20:03:57.390Z,7.03
2023-01-19T20:06:26.549Z,5.33
2023-01-19T20:08:57.555Z,7.77
2023-01-19T20:11:28.140Z,6.20
2023-01-19T20:13:56.198Z,8.83
2023-01-19T20:16:25.488Z,8.43
2023-01-19T20:18:55.160Z,10.43
2023-01-19T20:21:26.022Z,8.67
2023-01-19T20:23:56.527Z,6.40
2023-01-19T20:26:26.621Z,6.50
2023-01-19T20:28:55.220Z,7.30
2023-01-19T20:31:25.280Z,8.27
2023-01-19T20:33:54.286Z,8.07
2023-01-19T20:36:24.295Z,6.20
2023-01-19T20:38:52.795Z,10.13
2023-01-19T20:41:23.599Z,8.07
2023-01-19T20:43:51.987Z,9.07
2023-01-19T20:46:20.458Z,5.63
2023-01-19T20:48:52.974Z,7.07
2023-01-19T20:51:22.364Z,9.37
2023-01-19T20:53:50.181Z,6.67
2023-01-19T20:56:18.187Z,6.73
2023-01-19T20:58:47.667Z,8.17
2023-01-19T21:01:18.123Z,8.10
2023-01-19T21:03:46.817Z,8.00
2023-01-19T21:06:15.712Z,6.77
2023-01-19T21:08:44.033Z,7.27
2023-01-19T21:11:13.169Z,5.53
2023-01-19T21:13:41.009Z,6.50
2023-01-19T21:16:10.752Z,9.80
2023-01-19T21:18:38.662Z,4.87
2023-01-19T21:21:09.100Z,14.43
2023-01-19T21:23:38.930Z,9.83
2023-01-19T21:26:07.006Z,9.87
2023-01-19T21:28:34.898Z,9.80
2023-01-19T21:31:07.731Z,6.83
2023-01-19T21:33:37.219Z,10.43
2023-01-19T21:36:05.439Z,7.30
2023-01-19T21:38:33.702Z,7.83
2023-01-19T21:41:07.275Z,11.57
2023-01-19T21:43:37.282Z,6.30
2023-01-19T21:46:12.327Z,10.27
2023-01-19T21:48:41.607Z,10.20
2023-01-19T21:51:09.857Z,7.93
2023-01-19T21:53:37.808Z,7.90
2023-01-19T21:56:07.970Z,9.87
2023-01-19T21:58:36.025Z,8.27
2023-01-19T22:01:06.093Z,10.87
2023-01-19T22:03:34.030Z,9.70
2023-01-19T22:06:07.016Z,9.77
2023-01-19T22:08:35.685Z,7.43
2023-01-19T22:11:05.618Z,9.27
2023-01-19T22:13:34.003Z,7.73
2023-01-19T22:16:02.534Z,7.37
2023-01-19T22:18:30.792Z,6.90
2023-01-19T22:21:09.989Z,9.17
2023-01-19T22:23:38.117Z,9.10
2023-01-19T22:26:06.462Z,6.67
2023-01-19T22:28:35.172Z,6.83
2023-01-19T22:31:07.396Z,8.70
2023-01-19T22:33:35.463Z,10.00
2023-01-19T22:36:15.767Z,9.93
2023-01-19T22:38:44.832Z,8.23
2023-01-19T22:41:14.976Z,11.97
2023-01-19T22:43:43.081Z,6.67
2023-01-19T22:46:11.304Z,7.30
2023-01-19T22:48:40.469Z,10.67
2023-01-19T22:51:08.700Z,7.97
2023-01-19T22:53:38.011Z,9.83
2023-01-19T22:56:13.836Z,8.77
2023-01-19T22:58:44.182Z,10.40
2023-01-19T23:01:12.931Z,7.07
2023-01-19T23:03:41.445Z,7.50
2023-01-19T23:06:11.901Z,14.03
2023-01-19T23:08:41.790Z,6.70
2023-01-19T23:11:12.789Z,8.50
2023-01-19T23:13:40.898Z,8.77
2023-01-19T23:16:09.475Z,9.30
2023-01-19T23:18:37.811Z,10.57
2023-01-19T23:21:08.688Z,10.30
2023-01-19T23:23:37.665Z,10.47
2023-01-19T23:26:09.739Z,9.20
2023-01-19T23:28:39.343Z,7.37
2023-01-19T23:31:17.719Z,9.37
2023-01-19T23:33:46.000Z,8.57
2023-01-19T23:36:14.461Z,9.53
2023-01-19T23:38:42.998Z,9.10
2023-01-19T23:41:12.240Z,6.77
2023-01-19T23:43:40.127Z,9.90
2023-01-19T23:46:09.830Z,10.87
2023-01-19T23:48:37.960Z,6.90
2023-01-19T23:51:09.593Z,6.73
2023-01-19T23:53:38.107Z,8.43
2023-01-19T23:56:17.441Z,9.67
2023-01-19T23:58:45.868Z,10.00
